.
WxDataArchive / Data Records for 2014-04-16
2014-04-15 April 2014 2014-04-17

Data Records for Wednesday, 16 April 2014

Time	Temp	Chill	HIndex	Humid	Dewpt	 Wind 	HiWind	WindDir	Rain 	Barom
-----	----	-----	------	-----	-----	------	------	-------	-----	-----
00:00	23.5	23.5	23.5	62	12.4	0	0	---	0.00	30.272 
00:05	23.5	23.5	23.5	63	12.8	0	0	---	0.00	30.272 
00:10	23.5	23.5	23.5	64	13.1	0	0	---	0.00	30.272 
00:15	23.3	23.3	23.3	65	13.3	0	0	---	0.00	30.270 
00:20	23.2	23.2	23.2	65	13.2	0	0	---	0.00	30.270 
00:25	23.2	23.2	23.2	65	13.2	0	0	---	0.00	30.270 
00:30	23.0	23.0	23.0	64	12.7	0	0	---	0.00	30.275 
00:35	23.0	23.0	23.0	64	12.7	0	0	---	0.00	30.275 
00:40	22.9	22.9	22.9	65	12.9	0	0	---	0.00	30.275 
00:45	22.9	22.9	22.9	65	12.9	0	0	---	0.00	30.276 
00:50	22.7	22.7	22.7	65	12.7	0	0	---	0.00	30.276 
00:55	22.5	22.5	22.5	66	12.9	0	0	---	0.00	30.276 
01:00	22.4	22.4	22.4	66	12.8	0	0	---	0.00	30.278 
01:05	22.4	22.4	22.4	67	13.1	0	0	---	0.00	30.278 
01:10	22.2	22.2	22.2	66	12.6	0	0	---	0.00	30.278 
01:15	22.2	22.2	22.2	66	12.6	0	0	---	0.00	30.282 
01:20	22.2	22.2	22.2	66	12.6	0	0	---	0.00	30.282 
01:25	22.1	22.1	22.1	66	12.5	0	0	---	0.00	30.282 
01:30	22.1	22.1	22.1	66	12.5	0	0	---	0.00	30.284 
01:35	21.9	21.9	21.9	67	12.7	0	0	---	0.00	30.284 
01:40	21.8	21.8	21.8	67	12.6	0	0	---	0.00	30.284 
01:45	21.8	21.8	21.8	67	12.6	0	0	---	0.00	30.282 
01:50	21.6	21.6	21.6	68	12.7	0	0	---	0.00	30.282 
01:55	21.6	21.6	21.6	68	12.7	0	0	---	0.00	30.282 
02:00	21.6	21.6	21.6	69	13.0	0	0	---	0.00	30.284 
02:05	21.4	21.4	21.4	69	12.8	0	0	---	0.00	30.284 
02:10	21.4	21.4	21.4	70	13.2	0	0	---	0.00	30.284 
02:15	21.4	21.4	21.4	71	13.5	0	0	---	0.00	30.287 
02:20	21.4	21.4	21.4	71	13.5	0	0	---	0.00	30.287 
02:25	21.3	21.3	21.3	71	13.4	0	0	---	0.00	30.287 
02:30	21.3	21.3	21.3	72	13.7	0	0	---	0.00	30.288 
02:35	21.1	21.1	21.1	72	13.5	0	0	---	0.00	30.288 
02:40	21.0	21.0	21.0	73	13.7	0	0	---	0.00	30.288 
02:45	21.0	21.0	21.0	73	13.7	0	0	---	0.00	30.290 
02:50	20.8	20.8	20.8	73	13.5	0	0	---	0.00	30.290 
02:55	20.8	20.8	20.8	74	13.8	0	0	---	0.00	30.290 
03:00	21.0	21.0	21.0	75	14.3	0	0	---	0.00	30.296 
03:05	21.0	21.0	21.0	75	14.3	0	0	---	0.00	30.296 
03:10	21.0	21.0	21.0	76	14.6	0	0	---	0.00	30.296 
03:15	21.0	21.0	21.0	76	14.6	0	0	---	0.00	30.303 
03:20	21.0	21.0	21.0	77	14.9	0	0	---	0.00	30.303 
03:25	20.8	20.8	20.8	77	14.7	0	0	---	0.00	30.303 
03:30	20.8	20.8	20.8	77	14.7	0	0	---	0.00	30.306 
03:35	20.6	20.6	20.6	77	14.6	0	0	---	0.00	30.306 
03:40	20.6	20.6	20.6	77	14.6	0	0	---	0.00	30.306 
03:45	20.6	20.6	20.6	77	14.6	0	0	---	0.00	30.316 
03:50	20.6	20.6	20.6	77	14.6	0	0	---	0.00	30.316 
03:55	20.5	20.5	20.5	78	14.8	0	0	---	0.00	30.316 
04:00	20.5	20.5	20.5	78	14.8	0	0	---	0.00	30.322 
04:05	20.5	20.5	20.5	78	14.8	0	0	---	0.00	30.322 
04:10	20.3	20.3	20.3	78	14.6	0	0	---	0.00	30.322 
04:15	20.3	20.3	20.3	78	14.6	0	0	---	0.00	30.331 
04:20	20.3	20.3	20.3	79	14.8	0	0	---	0.00	30.331 
04:25	20.2	20.2	20.2	79	14.8	0	0	---	0.00	30.331 
04:30	20.2	20.2	20.2	79	14.8	0	0	---	0.00	30.336 
04:35	20.2	20.2	20.2	79	14.8	0	0	---	0.00	30.336 
04:40	20.2	20.2	20.2	79	14.8	0	0	---	0.00	30.336 
04:45	20.2	20.2	20.2	79	14.8	0	0	---	0.00	30.344 
04:50	20.2	20.2	20.2	79	14.8	0	0	---	0.00	30.344 
04:55	20.0	20.0	20.0	80	14.8	0	0	---	0.00	30.344 
05:00	20.0	20.0	20.0	80	14.8	0	0	---	0.00	30.348 
05:05	20.0	20.0	20.0	80	14.8	0	0	---	0.00	30.348 
05:10	20.0	20.0	20.0	80	14.8	0	0	---	0.00	30.348 
05:15	20.0	20.0	20.0	80	14.8	0	0	---	0.00	30.355 
05:20	20.0	20.0	20.0	80	14.8	0	0	---	0.00	30.355 
05:25	20.0	20.0	20.0	80	14.8	0	0	---	0.00	30.355 
05:30	19.9	19.9	19.9	80	14.7	0	0	---	0.00	30.359 
05:35	19.9	19.9	19.9	80	14.7	0	0	---	0.00	30.359 
05:40	19.7	19.7	19.7	80	14.6	0	0	---	0.00	30.359 
05:45	19.7	19.7	19.7	80	14.6	0	0	---	0.00	30.363 
05:50	19.7	19.7	19.7	81	14.8	0	0	---	0.00	30.363 
05:55	19.5	19.5	19.5	81	14.6	0	0	---	0.00	30.363 
06:00	19.5	19.5	19.5	81	14.6	0	0	---	0.00	30.366 
06:05	19.5	19.5	19.5	81	14.6	0	0	---	0.00	30.366 
06:10	19.5	19.5	19.5	81	14.6	0	0	---	0.00	30.366 
06:15	19.5	19.5	19.5	81	14.6	0	0	---	0.00	30.374 
06:20	19.5	19.5	19.5	81	14.6	0	0	---	0.00	30.374 
06:25	19.5	19.5	19.5	81	14.6	0	0	---	0.00	30.374 
06:30	19.4	19.4	19.4	81	14.5	0	0	---	0.00	30.382 
06:35	19.4	19.4	19.4	81	14.5	0	0	---	0.00	30.382 
06:40	19.5	19.5	19.5	81	14.6	0	0	---	0.00	30.382 
06:45	19.7	19.7	19.7	81	14.8	0	0	---	0.00	30.383 
06:50	19.9	19.9	19.9	81	15.0	0	0	---	0.00	30.383 
06:55	20.0	20.0	20.0	80	14.8	0	0	---	0.00	30.383 
07:00	20.2	20.2	20.2	80	15.0	0	0	---	0.00	30.384 
07:05	20.3	20.3	20.3	79	14.8	0	0	---	0.00	30.384 
07:10	20.5	20.5	20.5	79	15.0	0	0	---	0.00	30.384 
07:15	20.5	20.5	20.5	79	15.0	0	0	---	0.00	30.390 
07:20	20.6	20.6	20.6	78	14.8	0	0	---	0.00	30.390 
07:25	20.8	20.8	20.8	78	15.0	0	0	---	0.00	30.390 
07:30	21.1	21.1	21.1	78	15.3	0	0	---	0.00	30.398 
07:35	21.6	21.6	21.6	77	15.5	0	0	---	0.00	30.398 
07:40	22.5	22.5	22.5	74	15.5	0	0	---	0.00	30.398 
07:45	23.5	23.5	23.5	72	15.8	0	1	292	0.00	30.396 
07:50	24.7	24.7	24.7	69	16.0	0	1	292	0.00	30.396 
07:55	25.8	25.8	25.8	65	15.7	0	1	292	0.00	30.396 
08:00	27.0	27.0	27.0	63	16.1	0	1	292	0.00	30.400 
08:05	28.1	28.1	28.1	59	15.6	0	1	292	0.00	30.400 
08:10	28.8	28.8	28.8	56	15.1	0	1	292	0.00	30.400 
08:15	29.5	29.5	29.5	53	14.5	0	2	158	0.00	30.408 
08:20	30.3	30.3	30.3	52	14.8	0	3	158	0.00	30.408 
08:25	30.9	30.9	30.9	51	14.9	0	1	158	0.00	30.408 
08:30	31.3	31.3	31.3	51	15.3	0	2	158	0.00	30.412 
08:35	31.8	31.8	31.8	49	14.8	1	3	112	0.00	30.412 
08:40	31.9	31.9	31.9	48	14.5	1	4	135	0.00	30.412 
08:45	32.1	32.1	32.1	48	14.6	1	4	112	0.00	30.418 
08:50	32.4	32.4	32.4	48	14.9	1	3	112	0.00	30.418 
08:55	32.8	32.8	32.8	47	14.8	1	3	112	0.00	30.418 
09:00	33.1	33.1	33.1	48	15.6	1	3	112	0.00	30.420 
09:05	33.4	33.4	33.4	46	14.9	1	4	112	0.00	30.420 
09:10	33.5	33.5	33.5	46	15.0	1	4	90	0.00	30.420 
09:15	34.0	34.0	34.0	46	15.4	1	3	45	0.00	30.427 
09:20	34.1	34.1	34.1	44	14.5	1	5	90	0.00	30.427 
09:25	34.3	34.3	34.3	43	14.2	2	5	90	0.00	30.427 
09:30	34.3	34.3	34.3	43	14.2	3	7	90	0.00	30.431 
09:35	34.3	34.3	34.3	43	14.2	2	5	112	0.00	30.431 
09:40	34.6	34.6	34.6	43	14.4	2	5	112	0.00	30.431 
09:45	34.9	34.9	34.9	43	14.7	2	5	112	0.00	30.434 
09:50	35.3	35.3	35.3	41	14.0	2	6	112	0.00	30.434 
09:55	35.5	35.5	35.5	41	14.2	2	6	90	0.00	30.434 
10:00	35.8	35.8	35.8	42	15.0	2	7	112	0.00	30.433 
10:05	36.2	36.2	36.2	41	14.8	2	5	90	0.00	30.433 
10:10	36.5	36.5	36.5	41	15.1	1	3	90	0.00	30.433 
10:15	36.9	36.9	36.9	40	14.9	2	6	112	0.00	30.436 
10:20	37.2	37.2	37.2	39	14.6	1	5	112	0.00	30.436 
10:25	37.3	37.3	37.3	40	15.2	2	6	112	0.00	30.436 
10:30	37.5	37.5	37.5	39	14.8	3	6	112	0.00	30.438 
10:35	37.6	37.6	37.6	41	16.1	3	9	90	0.00	30.438 
10:40	37.8	37.8	37.8	39	15.1	2	5	135	0.00	30.438 
10:45	38.0	38.0	38.0	39	15.3	2	4	90	0.00	30.436 
10:50	38.3	38.3	38.3	39	15.5	2	5	90	0.00	30.436 
10:55	38.9	38.9	38.9	41	17.2	2	6	112	0.00	30.436 
11:00	38.9	38.9	38.9	40	16.7	2	6	90	0.00	30.435 
11:05	38.8	38.8	38.8	40	16.6	3	7	112	0.00	30.435 
11:10	38.8	38.8	38.8	41	17.1	3	8	112	0.00	30.435 
11:15	39.2	39.2	39.2	40	16.9	2	8	112	0.00	30.438 
11:20	39.3	39.3	39.3	40	17.0	3	6	90	0.00	30.438 
11:25	39.3	39.3	39.3	39	16.4	3	13	112	0.00	30.438 
11:30	39.9	39.9	39.9	40	17.6	2	5	112	0.00	30.435 
11:35	40.2	40.2	40.2	39	17.2	2	5	90	0.00	30.435 
11:40	40.3	40.3	40.3	38	16.7	2	6	112	0.00	30.435 
11:45	40.5	40.5	40.5	39	17.5	2	9	90	0.00	30.434 
11:50	40.8	40.8	40.8	41	18.9	2	6	90	0.00	30.434 
11:55	40.9	40.9	40.9	39	17.9	3	7	90	0.00	30.434 
12:00	40.9	40.9	40.9	38	17.3	3	6	90	0.00	30.428 
12:05	40.8	40.8	40.8	38	17.2	3	6	112	0.00	30.428 
12:10	40.6	38.0	40.6	39	17.6	4	9	90	0.00	30.428 
12:15	40.6	40.6	40.6	39	17.6	3	7	90	0.00	30.420 
12:20	40.9	40.9	40.9	40	18.5	3	7	112	0.00	30.420 
12:25	41.2	41.2	41.2	39	18.1	2	6	90	0.00	30.420 
12:30	41.5	39.1	41.5	38	17.8	4	10	90	0.00	30.418 
12:35	41.5	41.5	41.5	38	17.8	3	7	90	0.00	30.418 
12:40	41.5	39.1	41.5	39	18.4	4	12	90	0.00	30.418 
12:45	41.3	38.8	41.3	39	18.2	4	9	90	0.00	30.420 
12:50	41.6	41.6	41.6	38	17.9	3	9	90	0.00	30.420 
12:55	41.9	41.9	41.9	39	18.8	3	9	90	0.00	30.420 
13:00	41.8	39.4	41.8	38	18.1	4	10	90	0.00	30.416 
13:05	41.9	41.9	41.9	38	18.2	3	7	90	0.00	30.416 
13:10	42.1	42.1	42.1	38	18.3	2	6	68	0.00	30.416 
13:15	42.6	42.6	42.6	38	18.8	3	10	90	0.00	30.416 
13:20	42.5	40.2	42.5	39	19.3	4	10	90	0.00	30.416 
13:25	42.2	39.1	42.2	39	19.0	5	9	90	0.00	30.416 
13:30	42.5	42.5	42.5	39	19.3	3	8	112	0.00	30.403 
13:35	42.9	42.9	42.9	39	19.7	3	7	90	0.00	30.403 
13:40	43.2	43.2	43.2	36	18.1	3	10	90	0.00	30.403 
13:45	43.2	43.2	43.2	38	19.3	3	11	90	0.00	30.399 
13:50	43.1	40.9	43.1	38	19.2	4	10	112	0.00	30.399 
13:55	43.3	43.3	43.3	39	20.0	3	9	90	0.00	30.399 
14:00	43.2	40.2	43.2	37	18.7	5	12	90	0.00	30.396 
14:05	43.3	43.3	43.3	37	18.8	2	7	90	0.00	30.396 
14:10	43.6	43.6	43.6	38	19.7	3	8	90	0.00	30.396 
14:15	43.8	40.3	43.8	38	19.9	6	11	90	0.00	30.386 
14:20	43.9	43.9	43.9	36	18.7	2	5	90	0.00	30.386 
14:25	44.2	44.2	44.2	37	19.6	3	6	90	0.00	30.386 
14:30	44.2	42.2	44.2	36	19.0	4	11	112	0.00	30.386 
14:35	44.3	44.3	44.3	36	19.0	2	5	90	0.00	30.386 
14:40	44.8	44.8	44.8	36	19.5	3	9	90	0.00	30.386 
14:45	44.8	42.1	44.8	38	20.8	5	10	90	0.00	30.372 
14:50	44.8	44.8	44.8	38	20.8	3	10	90	0.00	30.372 
14:55	44.9	44.9	44.9	37	20.2	2	10	90	0.00	30.372 
15:00	44.9	41.6	44.9	38	20.8	6	14	112	0.00	30.368 
15:05	44.6	41.9	44.6	37	20.0	5	13	112	0.00	30.368 
15:10	44.9	42.2	44.9	36	19.6	5	14	112	0.00	30.368 
15:15	44.8	42.1	44.8	37	20.1	5	14	90	0.00	30.366 
15:20	44.6	42.6	44.6	36	19.3	4	12	90	0.00	30.366 
15:25	44.8	42.9	44.8	36	19.5	4	12	90	0.00	30.366 
15:30	44.9	44.9	44.9	36	19.6	3	9	112	0.00	30.365 
15:35	45.2	45.2	45.2	38	21.1	3	10	90	0.00	30.365 
15:40	45.5	45.5	45.5	34	18.8	3	9	90	0.00	30.365 
15:45	45.7	45.7	45.7	34	19.0	3	6	90	0.00	30.353 
15:50	45.5	43.7	45.5	34	18.8	4	11	90	0.00	30.353 
15:55	45.7	45.7	45.7	34	19.0	3	9	90	0.00	30.353 
16:00	45.7	45.7	45.7	37	20.9	3	11	90	0.00	30.345 
16:05	45.8	44.0	45.8	33	18.4	4	13	90	0.00	30.345 
16:10	46.0	44.2	46.0	35	19.9	4	10	90	0.00	30.345 
16:15	46.0	46.0	46.0	35	19.9	3	14	90	0.00	30.339 
16:20	46.2	46.2	46.2	37	21.4	3	10	90	0.00	30.339 
16:25	46.5	44.8	46.5	36	21.0	4	14	90	0.00	30.339 
16:30	46.5	46.5	46.5	38	22.3	3	9	90	0.00	30.335 
16:35	46.5	46.5	46.5	37	21.6	3	12	90	0.00	30.335 
16:40	46.7	45.1	46.7	37	21.8	4	10	90	0.00	30.335 
16:45	46.8	46.8	46.8	36	21.3	2	6	90	0.00	30.328 
16:50	47.0	47.0	47.0	36	21.4	3	11	90	0.00	30.328 
16:55	46.7	46.7	46.7	35	20.5	3	10	112	0.00	30.328 
17:00	46.7	46.7	46.7	35	20.5	2	6	90	0.00	30.324 
17:05	46.8	45.2	46.8	36	21.3	4	13	90	0.00	30.324 
17:10	46.7	43.7	46.7	36	21.2	6	16	90	0.00	30.324 
17:15	47.0	47.0	47.0	37	22.1	3	9	90	0.00	30.320 
17:20	47.1	47.1	47.1	35	20.9	3	7	90	0.00	30.320 
17:25	47.3	47.3	47.3	35	21.0	3	9	90	0.00	30.320 
17:30	47.3	47.3	47.3	36	21.7	3	6	112	0.00	30.316 
17:35	47.4	47.4	47.4	37	22.5	3	7	112	0.00	30.316 
17:40	47.4	45.9	47.4	36	21.8	4	10	90	0.00	30.316 
17:45	47.4	47.4	47.4	35	21.1	3	7	90	0.00	30.310 
17:50	47.4	47.4	47.4	37	22.5	3	7	112	0.00	30.310 
17:55	47.6	47.6	47.6	35	21.3	3	10	90	0.00	30.310 
18:00	47.6	47.6	47.6	34	20.6	2	9	90	0.00	30.305 
18:05	47.6	47.6	47.6	37	22.6	3	9	112	0.00	30.305 
18:10	47.4	47.4	47.4	35	21.1	3	9	112	0.00	30.305 
18:15	47.1	47.1	47.1	36	21.5	3	6	90	0.00	30.306 
18:20	47.0	45.4	47.0	35	20.8	4	12	112	0.00	30.306 
18:25	46.8	46.8	46.8	35	20.6	3	7	90	0.00	30.306 
18:30	46.8	46.8	46.8	37	21.9	3	10	112	0.00	30.305 
18:35	46.7	46.7	46.7	37	21.8	2	11	112	0.00	30.305 
18:40	46.5	44.8	46.5	37	21.6	4	11	90	0.00	30.305 
18:45	46.5	46.5	46.5	37	21.6	3	6	112	0.00	30.304 
18:50	46.5	46.5	46.5	36	21.0	2	6	90	0.00	30.304 
18:55	46.4	46.4	46.4	37	21.6	2	6	112	0.00	30.304 
19:00	46.4	46.4	46.4	39	22.8	2	6	90	0.00	30.301 
19:05	46.5	46.5	46.5	37	21.6	2	7	68	0.00	30.301 
19:10	46.4	46.4	46.4	38	22.2	2	6	90	0.00	30.301 
19:15	46.2	46.2	46.2	38	22.0	2	5	112	0.00	30.289 
19:20	46.1	46.1	46.1	39	22.5	2	4	112	0.00	30.289 
19:25	46.1	46.1	46.1	38	21.9	2	5	90	0.00	30.289 
19:30	46.0	46.0	46.0	39	22.4	2	9	112	0.00	30.289 
19:35	45.8	45.8	45.8	39	22.3	2	6	90	0.00	30.289 
19:40	45.7	45.7	45.7	39	22.2	2	5	135	0.00	30.289 
19:45	45.5	45.5	45.5	40	22.6	2	9	112	0.00	30.287 
19:50	45.4	45.4	45.4	41	23.1	2	7	90	0.00	30.287 
19:55	45.2	45.2	45.2	41	22.9	3	8	112	0.00	30.287 
20:00	45.1	45.1	45.1	41	22.8	2	9	90	0.00	30.288 
20:05	44.9	44.9	44.9	41	22.6	3	7	112	0.00	30.288 
20:10	44.8	44.8	44.8	42	23.1	2	5	112	0.00	30.288 
20:15	44.6	44.6	44.6	42	22.9	2	6	90	0.00	30.281 
20:20	44.5	44.5	44.5	43	23.4	2	6	90	0.00	30.281 
20:25	44.3	44.3	44.3	43	23.2	2	6	90	0.00	30.281 
20:30	44.2	44.2	44.2	43	23.1	2	7	90	0.00	30.285 
20:35	43.9	43.9	43.9	44	23.4	2	5	90	0.00	30.285 
20:40	43.6	43.6	43.6	45	23.7	1	5	90	0.00	30.285 
20:45	43.5	43.5	43.5	46	24.1	2	4	90	0.00	30.287 
20:50	43.2	43.2	43.2	47	24.3	1	4	90	0.00	30.287 
20:55	42.9	42.9	42.9	48	24.6	2	4	90	0.00	30.287 
21:00	42.6	42.6	42.6	50	25.3	3	7	90	0.00	30.287 
21:05	42.3	42.3	42.3	51	25.5	3	6	90	0.00	30.287 
21:10	41.9	41.9	41.9	53	26.0	2	5	90	0.00	30.287 
21:15	41.6	41.6	41.6	54	26.2	2	6	90	0.00	30.284 
21:20	41.3	41.3	41.3	54	25.9	3	5	90	0.00	30.284 
21:25	41.2	41.2	41.2	55	26.3	3	6	90	0.00	30.284 
21:30	41.1	41.1	41.1	55	26.2	3	6	90	0.00	30.290 
21:35	40.9	40.9	40.9	56	26.4	3	6	90	0.00	30.290 
21:40	40.8	40.8	40.8	56	26.3	3	6	90	0.00	30.290 
21:45	40.6	40.6	40.6	57	26.6	3	6	90	0.00	30.292 
21:50	40.5	40.5	40.5	57	26.5	2	5	90	0.00	30.292 
21:55	40.3	40.3	40.3	57	26.3	3	7	90	0.00	30.292 
22:00	40.3	40.3	40.3	58	26.7	3	5	90	0.00	30.289 
22:05	40.2	40.2	40.2	58	26.6	3	5	68	0.00	30.289 
22:10	40.1	40.1	40.1	58	26.5	3	6	90	0.00	30.289 
22:15	39.9	39.9	39.9	58	26.3	2	5	90	0.00	30.292 
22:20	39.8	39.8	39.8	59	26.7	2	7	90	0.00	30.292 
22:25	39.6	39.6	39.6	59	26.5	3	5	90	0.00	30.292 
22:30	39.6	39.6	39.6	59	26.5	3	6	90	0.00	30.294 
22:35	39.5	39.5	39.5	59	26.4	3	6	90	0.00	30.294 
22:40	39.3	39.3	39.3	60	26.6	2	7	90	0.00	30.294 
22:45	39.2	39.2	39.2	60	26.5	2	5	90	0.00	30.298 
22:50	38.9	38.9	38.9	61	26.6	2	4	90	0.00	30.298 
22:55	38.8	38.8	38.8	61	26.5	1	4	90	0.00	30.298 
23:00	38.6	38.6	38.6	61	26.3	2	5	90	0.00	30.304 
23:05	38.6	38.6	38.6	61	26.3	1	3	90	0.00	30.304 
23:10	38.5	38.5	38.5	61	26.2	1	4	90	0.00	30.304 
23:15	38.3	38.3	38.3	61	26.0	2	4	90	0.00	30.304 
23:20	38.3	38.3	38.3	62	26.4	2	6	90	0.00	30.304 
23:25	38.3	38.3	38.3	62	26.4	2	5	90	0.00	30.304 
23:30	38.2	38.2	38.2	62	26.3	3	6	90	0.00	30.295 
23:35	38.2	38.2	38.2	62	26.3	3	6	90	0.00	30.295 
23:40	38.0	38.0	38.0	63	26.5	3	12	90	0.00	30.295 
23:45	38.0	38.0	38.0	64	26.9	2	6	90	0.00	30.294 
23:50	37.9	37.9	37.9	64	26.8	2	6	90	0.00	30.294 
23:55	37.8	37.8	37.8	65	27.1	2	6	90	0.00	30.294 

CoCoRaHS
IN-AL-39
A2 Web Hosting
Creative Commons License
GoDaddy
search engine by freefind advanced

loaded 2018-11-20 06:15:35 • last modified 2010-11-18 10:43:29
Privacy PolicyDisclaimer
• wx.awcolley.com is powered by PmWiki v.2002016 •
• all content (unless otherwise noted) © 2018 A W Colley